Flight Track Log - Related Links

Times and Time Zones

All times are in EDT time to prevent confusion due to time zone crossing. See the DAL3673 flight status page for this flight to view local times or setup timezone preferences in your user account.

Time Position Orientation Groundspeed Altitude Reporting Facility
EDT Latitude Longitude Course Direction KTS MPH feet Rate Location/Type
Tue 15:37:02 44.8972 -93.2506 119° Southeast 173 199 2,700  Level FAA TRACON SMA TRACON (SMA)
Tue 15:37:23 44.8933 -93.2708 255° West 173 199 3,300 2,341 Climbing FAA TRACON SMA TRACON (SMA)
Tue 15:37:43 44.8886 -93.2997 257° West 192 221 4,300 2,700 Climbing FAA TRACON SMA TRACON (SMA)
Tue 15:38:03 44.8850 -93.3244 258° West 207 238 5,100 1,950 Climbing FAA TRACON SMA TRACON (SMA)
Tue 15:38:23 44.8806 -93.3531 258° West 232 267 5,600 2,462 Climbing FAA TRACON SMA TRACON (SMA)
Tue 15:38:42 44.8747 -93.3914 258° West 259 298 6,700 2,000 Climbing FAA TRACON SMA TRACON (SMA)
Tue 15:39:00 44.7224 -92.9000 139° Southeast  Level Estimated
Tue 15:39:02 44.8697 -93.4228 257° West 267 307 6,900  Level FAA TRACON SMA TRACON (SMA)
Tue 15:39:22 44.8639 -93.4547 256° West 272 313 6,900 150 Level FAA TRACON SMA TRACON (SMA)
Tue 15:39:42 44.8433 -93.4836 225° Southwest 282 325 7,000 150 Climbing FAA TRACON SMA TRACON (SMA)
Tue 15:40:00 44.6319 -92.8709 167° South  Level FlightAware Approximate
Tue 15:40:02 44.8189 -93.4878 187° South 291 335 7,000  Level FAA TRACON SMA TRACON (SMA)
Tue 15:40:22 44.7939 -93.4881 180° South 292 336 7,000 -150 Level FAA TRACON SMA TRACON (SMA)
Tue 15:40:42 44.7625 -93.4883 180° South 292 336 6,900 600 Descending FAA TRACON SMA TRACON (SMA)
Tue 15:41:00 44.5820 -92.7610 141° Southeast  Level Estimated
Tue 15:41:02 44.7378 -93.4886 180° South 289 333 7,400  Level FAA TRACON SMA TRACON (SMA)
Tue 15:41:22 44.7131 -93.4889 180° South 287 330 8,300 3,000 Climbing FAA TRACON SMA TRACON (SMA)
Tue 15:41:42 44.6828 -93.4836 173° South 292 336 9,400 2,700 Climbing FAA TRACON SMA TRACON (SMA)
Tue 15:42:00 44.5320 -92.6513 119° Southeast  Level Estimated
Tue 15:42:02 44.6633 -93.4622 142° Southeast 302 348 10,100  Level FAA TRACON SMA TRACON (SMA)
Tue 15:42:22 44.6528 -93.4286 114° Southeast 306 352 10,800 1,317 Climbing FAA TRACON SMA TRACON (SMA)
Tue 15:42:43 44.6417 -93.3831 109° East 315 362 11,000 293 Climbing FAA TRACON SMA TRACON (SMA)
Tue 15:43:03 44.6314 -93.3439 110° East 334 384 11,000  Level FAA TRACON SMA TRACON (SMA)
Tue 15:43:23 44.6181 -93.2942 111° Southeast 352 405 11,000  Level FAA TRACON SMA TRACON (SMA)
Tue 15:43:43 44.6075 -93.2539 110° East 357 411 11,000  Level FAA TRACON SMA TRACON (SMA)
Tue 15:44:03 44.5967 -93.2142 111° Southeast 355 409 11,000 -150 Level FAA TRACON SMA TRACON (SMA)
Tue 15:44:23 44.5831 -93.1642 111° Southeast 356 410 10,900  Descending FAA TRACON SMA TRACON (SMA)
Tue 15:44:42 44.5725 -93.1239 110° East 356 410 11,000  Climbing FAA TRACON SMA TRACON (SMA)
Tue 15:45:02 44.5614 -93.0839 111° Southeast 358 412 10,900  Descending FAA TRACON SMA TRACON (SMA)
Tue 15:45:22 44.5506 -93.0436 111° Southeast 358 412 11,000 150 Climbing FAA TRACON SMA TRACON (SMA)
Tue 15:45:42 44.5364 -92.9933 112° Southeast 358 412 11,000 -150 Level FAA TRACON SMA TRACON (SMA)
Tue 15:46:02 44.5256 -92.9533 111° Southeast 359 413 10,900 -150 Descending FAA TRACON SMA TRACON (SMA)
Tue 15:46:22 44.5117 -92.9025 111° Southeast 360 414 10,900 150 Level FAA TRACON SMA TRACON (SMA)
Tue 15:46:42 44.5008 -92.8622 111° Southeast 361 415 11,000 150 Climbing FAA TRACON SMA TRACON (SMA)
Tue 15:47:02 44.4894 -92.8222 112° Southeast 359 413 11,000  Level FAA TRACON SMA TRACON (SMA)
Tue 15:47:22 44.4758 -92.7717 111° Southeast 360 414 11,000  Level FAA TRACON SMA TRACON (SMA)
Tue 15:47:42 44.4636 -92.7325 114° Southeast 358 412 11,000  Level FAA TRACON SMA TRACON (SMA)
Tue 15:48:02 44.4492 -92.6942 118° Southeast 359 413 11,000  Level FAA TRACON SMA TRACON (SMA)
Tue 15:48:23 44.4300 -92.6478 120° Southeast 359 413 11,000  Level FAA TRACON SMA TRACON (SMA)
Tue 15:48:43 44.4147 -92.6100 120° Southeast 358 412 11,000  Level FAA TRACON SMA TRACON (SMA)
Tue 15:49:03 44.3997 -92.5728 119° Southeast 358 412 11,000  Level FAA TRACON SMA TRACON (SMA)
Tue 15:49:23 44.3800 -92.5267 121° Southeast 358 412 11,000  Level FAA TRACON SMA TRACON (SMA)
Tue 15:49:43 44.3644 -92.4900 121° Southeast 357 411 11,000  Level FAA TRACON SMA TRACON (SMA)
Tue 15:50:03 44.3486 -92.4536 121° Southeast 355 409 11,000  Level FAA TRACON SMA TRACON (SMA)
Tue 15:50:22 44.3333 -92.4169 120° Southeast 357 411 11,000  Level FAA TRACON SMA TRACON (SMA)
Tue 15:50:42 44.3139 -92.3708 121° Southeast 357 411 11,000  Level FAA TRACON SMA TRACON (SMA)
Tue 15:51:05 44.2983 -92.3339 120° Southeast 357 411 11,000  Level FAA TRACON SMA TRACON (SMA)
Tue 15:51:25 44.2792 -92.2878 120° Southeast 355 409 11,000  Level FAA TRACON SMA TRACON (SMA)
Tue 15:51:42 44.2647 -92.2503 118° Southeast 356 410 11,000  Level FAA TRACON SMA TRACON (SMA)
Tue 15:52:02 44.2492 -92.2136 121° Southeast 355 409 11,000  Level FAA TRACON SMA TRACON (SMA)
Tue 15:52:22 44.2342 -92.1769 120° Southeast 356 410 11,000  Level FAA TRACON SMA TRACON (SMA)
Tue 15:53:12 44.1958 -92.1125 130° Southeast 354 407 11,000  Level Minneapolis Center
Tue 15:54:14 44.1325 -91.9672 121° Southeast 353 406 11,000  Level Minneapolis Center
Tue 15:55:28 44.0708 -91.8506 126° Southeast 354 407 11,000  Level Minneapolis Center
Tue 15:56:30 43.9850 -91.7519 140° Southeast 323 372 11,000 -293 Level Minneapolis Center
Tue 15:57:31 43.9292 -91.6881 140° Southeast 314 361 10,400 -919 Descending Minneapolis Center
Tue 15:58:34 43.8494 -91.5994 141° Southeast 296 341 9,100 -1,161 Descending Minneapolis Center
Tue 15:59:35 43.7919 -91.5350 141° Southeast 282 325 8,000 -1,122 Descending Minneapolis Center
Tue 16:00:37 43.7317 -91.4725 143° Southeast 275 316 6,800 -1,161 Descending Minneapolis Center
Tue 16:01:39 43.6694 -91.4136 146° Southeast 273 314 5,600 -1,306 Descending Minneapolis Center
Tue 16:02:41 43.6114 -91.3533 143° Southeast 267 307 4,100 -1,268 Descending Minneapolis Center
Tue 16:03:42 43.6383 -91.2647 67° East 225 259 3,000 -683 Descending Minneapolis Center
Tue 16:04:44 43.6872 -91.2553 North 175 201 2,700 -242 Descending Minneapolis Center
Tue 16:05:46 43.7392 -91.2564 359° North 173 199 2,500 -194 Descending Minneapolis Center

Login

Don't have an account? Register now (free) for customized features, flight alerts, and more!